Ana Sayfa
METAR-TAF:

METAR-TAF

Havaalanları :

Yaş, Romanya

Enlem: 47-10N, Boylam: 027-38E, yükseklik: 102 m

Güncel hava durumu gözlemi

Rapor saat 15:00 UTC de 36 dakika önce yapıldı.
Rüzgar doğu/kuzeydoğudan 11 kt, kuzeydoğu ve doğu arasında değişken
Sıcaklık 26°C
Nem 32%
Basınç 1021 hPa
Görüş mesafesi 10 km veya daha fazla
1500 m altında bulut yok ve kümülonimbus yok

METAR: LRIA 261500Z 07011KT 040V100 CAVOK 26/08 Q1021

Saat: 18:36 (15:36 UTC)


TAF: eksik

4.000'den fazla havaalanı için hava durumu gözlemleri ve tahminleri (METAR ve TAF raporları).

Kullanılabilir istasyonlar harita üzerinde sarı ve kırmızı noktalarla gösterilir.

İstasyonun adını görmek için fareyi noktanın üzerinde gezdirin.

Sonrasında hava gözlem ve tahminlerini görmek için tıklayın.

Haritayı değiştirmek için: yaklaştırmak için siyah artı işaretli yeşil düğmeye ve uzaklaştırmak için de eksi işaretli düğmeye hızla tıklayın; bitişik haritalar için yeşil okları kullanın.


METAR-TAF: